sensor_id;sensor_type;location;lat;lon;timestamp;temperature;humidity
47368;DHT22;34646;47.964;7.982;2023-07-31T00:02:26;21.00;85.40
47368;DHT22;34646;47.964;7.982;2023-07-31T00:08:26;20.70;84.90
47368;DHT22;34646;47.964;7.982;2023-07-31T00:14:27;20.90;85.40
47368;DHT22;34646;47.964;7.982;2023-07-31T00:20:28;20.90;84.80
47368;DHT22;34646;47.964;7.982;2023-07-31T00:26:29;20.80;84.80
47368;DHT22;34646;47.964;7.982;2023-07-31T00:32:29;20.70;85.20
47368;DHT22;34646;47.964;7.982;2023-07-31T00:38:30;21.10;85.00
47368;DHT22;34646;47.964;7.982;2023-07-31T00:44:31;20.80;85.30
47368;DHT22;34646;47.964;7.982;2023-07-31T00:50:31;20.80;84.80
47368;DHT22;34646;47.964;7.982;2023-07-31T00:56:33;21.10;84.80
47368;DHT22;34646;47.964;7.982;2023-07-31T01:02:35;21.00;85.40
47368;DHT22;34646;47.964;7.982;2023-07-31T01:08:54;21.00;85.30
47368;DHT22;34646;47.964;7.982;2023-07-31T01:15:07;20.80;85.40
47368;DHT22;34646;47.964;7.982;2023-07-31T01:21:33;20.80;85.40
47368;DHT22;34646;47.964;7.982;2023-07-31T01:27:53;20.70;84.90
47368;DHT22;34646;47.964;7.982;2023-07-31T01:33:56;21.20;85.00
47368;DHT22;34646;47.964;7.982;2023-07-31T01:39:58;20.70;84.70
47368;DHT22;34646;47.964;7.982;2023-07-31T01:45:58;20.90;85.20
47368;DHT22;34646;47.964;7.982;2023-07-31T01:51:59;20.80;85.10
47368;DHT22;34646;47.964;7.982;2023-07-31T01:58:00;21.10;84.70
47368;DHT22;34646;47.964;7.982;2023-07-31T02:04:00;20.90;84.60
47368;DHT22;34646;47.964;7.982;2023-07-31T02:10:01;20.70;84.40
47368;DHT22;34646;47.964;7.982;2023-07-31T02:16:02;20.60;84.30
47368;DHT22;34646;47.964;7.982;2023-07-31T02:22:03;20.80;84.40
47368;DHT22;34646;47.964;7.982;2023-07-31T02:28:05;20.60;84.70
47368;DHT22;34646;47.964;7.982;2023-07-31T02:34:06;20.80;84.70
47368;DHT22;34646;47.964;7.982;2023-07-31T02:40:07;20.80;84.40
47368;DHT22;34646;47.964;7.982;2023-07-31T02:46:07;20.30;83.60
47368;DHT22;34646;47.964;7.982;2023-07-31T02:52:08;20.70;84.10
47368;DHT22;34646;47.964;7.982;2023-07-31T02:58:09;20.70;84.10
47368;DHT22;34646;47.964;7.982;2023-07-31T03:04:10;20.70;84.10
47368;DHT22;34646;47.964;7.982;2023-07-31T03:10:10;21.10;83.70
47368;DHT22;34646;47.964;7.982;2023-07-31T03:16:11;21.10;83.40
47368;DHT22;34646;47.964;7.982;2023-07-31T03:22:12;20.60;83.10
47368;DHT22;34646;47.964;7.982;2023-07-31T03:28:12;20.50;83.00
47368;DHT22;34646;47.964;7.982;2023-07-31T03:34:13;20.90;83.10
47368;DHT22;34646;47.964;7.982;2023-07-31T03:40:14;20.60;82.80
47368;DHT22;34646;47.964;7.982;2023-07-31T03:46:14;21.00;83.10
47368;DHT22;34646;47.964;7.982;2023-07-31T03:52:15;20.70;83.50
47368;DHT22;34646;47.964;7.982;2023-07-31T03:58:16;20.40;82.70
47368;DHT22;34646;47.964;7.982;2023-07-31T04:04:17;20.10;82.50
47368;DHT22;34646;47.964;7.982;2023-07-31T04:10:17;20.50;83.60
47368;DHT22;34646;47.964;7.982;2023-07-31T04:16:18;20.80;83.10
47368;DHT22;34646;47.964;7.982;2023-07-31T04:22:19;20.40;83.00
47368;DHT22;34646;47.964;7.982;2023-07-31T04:28:19;20.40;83.00
47368;DHT22;34646;47.964;7.982;2023-07-31T04:34:20;20.50;83.00
47368;DHT22;34646;47.964;7.982;2023-07-31T04:40:21;20.70;83.20
47368;DHT22;34646;47.964;7.982;2023-07-31T04:46:22;20.90;83.30
47368;DHT22;34646;47.964;7.982;2023-07-31T04:52:22;20.90;84.10
47368;DHT22;34646;47.964;7.982;2023-07-31T05:04:24;20.80;84.90
47368;DHT22;34646;47.964;7.982;2023-07-31T05:10:25;20.50;85.40
47368;DHT22;34646;47.964;7.982;2023-07-31T05:16:25;20.20;84.90
47368;DHT22;34646;47.964;7.982;2023-07-31T05:22:26;20.60;85.80
47368;DHT22;34646;47.964;7.982;2023-07-31T05:28:27;20.50;85.30
47368;DHT22;34646;47.964;7.982;2023-07-31T05:34:27;20.50;85.50
47368;DHT22;34646;47.964;7.982;2023-07-31T05:40:28;20.60;85.70
47368;DHT22;34646;47.964;7.982;2023-07-31T05:46:29;20.60;86.40
47368;DHT22;34646;47.964;7.982;2023-07-31T05:52:31;20.80;78.20
47368;DHT22;34646;47.964;7.982;2023-07-31T05:58:32;20.80;86.20
47368;DHT22;34646;47.964;7.982;2023-07-31T06:04:32;20.70;86.90
47368;DHT22;34646;47.964;7.982;2023-07-31T06:10:33;20.60;86.30
47368;DHT22;34646;47.964;7.982;2023-07-31T06:16:35;20.70;87.20
47368;DHT22;34646;47.964;7.982;2023-07-31T06:22:36;20.60;87.10
47368;DHT22;34646;47.964;7.982;2023-07-31T06:28:37;20.60;86.70
47368;DHT22;34646;47.964;7.982;2023-07-31T06:34:37;20.60;87.30
47368;DHT22;34646;47.964;7.982;2023-07-31T06:40:39;20.60;87.30
47368;DHT22;34646;47.964;7.982;2023-07-31T06:46:40;20.70;87.00
47368;DHT22;34646;47.964;7.982;2023-07-31T06:58:42;20.50;87.10
47368;DHT22;34646;47.964;7.982;2023-07-31T07:04:43;20.50;87.80
47368;DHT22;34646;47.964;7.982;2023-07-31T07:16:45;20.60;87.50
47368;DHT22;34646;47.964;7.982;2023-07-31T07:22:45;20.60;88.30
47368;DHT22;34646;47.964;7.982;2023-07-31T07:28:46;20.60;88.40
47368;DHT22;34646;47.964;7.982;2023-07-31T07:34:48;20.40;88.40
47368;DHT22;34646;47.964;7.982;2023-07-31T07:40:50;20.60;88.70
47368;DHT22;34646;47.964;7.982;2023-07-31T07:46:53;20.10;88.00
47368;DHT22;34646;47.964;7.982;2023-07-31T07:52:54;20.60;88.60
47368;DHT22;34646;47.964;7.982;2023-07-31T07:58:55;20.50;88.60
47368;DHT22;34646;47.964;7.982;2023-07-31T08:04:56;20.50;88.60
47368;DHT22;34646;47.964;7.982;2023-07-31T08:10:56;20.80;88.20
47368;DHT22;34646;47.964;7.982;2023-07-31T08:16:57;20.50;88.20
47368;DHT22;34646;47.964;7.982;2023-07-31T08:22:58;20.50;88.90
47368;DHT22;34646;47.964;7.982;2023-07-31T08:28:59;20.60;89.20
47368;DHT22;34646;47.964;7.982;2023-07-31T08:35:01;20.50;89.10
47368;DHT22;34646;47.964;7.982;2023-07-31T08:41:03;20.40;89.20
47368;DHT22;34646;47.964;7.982;2023-07-31T08:47:06;20.60;89.50
47368;DHT22;34646;47.964;7.982;2023-07-31T08:53:06;20.60;89.60
47368;DHT22;34646;47.964;7.982;2023-07-31T08:59:08;20.60;89.50
47368;DHT22;34646;47.964;7.982;2023-07-31T09:05:10;20.60;89.80
47368;DHT22;34646;47.964;7.982;2023-07-31T09:11:12;20.50;90.00
47368;DHT22;34646;47.964;7.982;2023-07-31T09:17:13;20.60;90.00
47368;DHT22;34646;47.964;7.982;2023-07-31T09:23:14;20.30;89.80
47368;DHT22;34646;47.964;7.982;2023-07-31T09:29:19;20.50;90.00
47368;DHT22;34646;47.964;7.982;2023-07-31T09:35:22;20.70;90.00
47368;DHT22;34646;47.964;7.982;2023-07-31T09:41:23;20.50;89.80
47368;DHT22;34646;47.964;7.982;2023-07-31T09:47:24;20.50;89.70
47368;DHT22;34646;47.964;7.982;2023-07-31T09:53:28;20.50;89.60
47368;DHT22;34646;47.964;7.982;2023-07-31T09:59:30;20.50;89.10
47368;DHT22;34646;47.964;7.982;2023-07-31T10:05:34;20.40;89.60
47368;DHT22;34646;47.964;7.982;2023-07-31T10:11:41;20.60;89.80
47368;DHT22;34646;47.964;7.982;2023-07-31T10:17:44;20.50;89.80
47368;DHT22;34646;47.964;7.982;2023-07-31T10:23:47;20.50;89.80
47368;DHT22;34646;47.964;7.982;2023-07-31T10:29:52;20.50;89.90
47368;DHT22;34646;47.964;7.982;2023-07-31T10:36:21;20.50;90.00
47368;DHT22;34646;47.964;7.982;2023-07-31T10:42:30;20.40;90.00
47368;DHT22;34646;47.964;7.982;2023-07-31T10:48:33;20.30;89.40
47368;DHT22;34646;47.964;7.982;2023-07-31T10:54:35;20.60;90.00
47368;DHT22;34646;47.964;7.982;2023-07-31T11:00:40;20.50;90.00
47368;DHT22;34646;47.964;7.982;2023-07-31T11:06:55;20.20;89.40
47368;DHT22;34646;47.964;7.982;2023-07-31T11:12:57;20.40;90.10
47368;DHT22;34646;47.964;7.982;2023-07-31T11:18:57;20.70;90.10
47368;DHT22;34646;47.964;7.982;2023-07-31T11:31:00;20.60;90.20
47368;DHT22;34646;47.964;7.982;2023-07-31T11:37:01;20.40;90.20
47368;DHT22;34646;47.964;7.982;2023-07-31T11:43:04;20.50;90.20
47368;DHT22;34646;47.964;7.982;2023-07-31T11:49:06;20.50;90.30
47368;DHT22;34646;47.964;7.982;2023-07-31T11:55:08;20.60;90.20
47368;DHT22;34646;47.964;7.982;2023-07-31T12:01:10;20.70;90.00
47368;DHT22;34646;47.964;7.982;2023-07-31T12:07:11;20.60;90.30
47368;DHT22;34646;47.964;7.982;2023-07-31T12:13:21;20.30;90.00
47368;DHT22;34646;47.964;7.982;2023-07-31T12:19:22;20.60;90.30
47368;DHT22;34646;47.964;7.982;2023-07-31T12:25:27;20.40;90.30
47368;DHT22;34646;47.964;7.982;2023-07-31T12:31:28;20.50;90.30
47368;DHT22;34646;47.964;7.982;2023-07-31T12:37:30;20.50;82.70
47368;DHT22;34646;47.964;7.982;2023-07-31T12:43:37;20.30;90.30
47368;DHT22;34646;47.964;7.982;2023-07-31T12:49:38;20.40;90.40
47368;DHT22;34646;47.964;7.982;2023-07-31T12:55:38;20.50;90.30
47368;DHT22;34646;47.964;7.982;2023-07-31T13:01:39;20.60;90.40
47368;DHT22;34646;47.964;7.982;2023-07-31T13:07:40;20.50;90.40
47368;DHT22;34646;47.964;7.982;2023-07-31T13:13:41;20.50;90.40
47368;DHT22;34646;47.964;7.982;2023-07-31T13:19:42;20.50;90.40
47368;DHT22;34646;47.964;7.982;2023-07-31T13:25:42;20.60;90.40
47368;DHT22;34646;47.964;7.982;2023-07-31T13:31:43;20.50;90.10
47368;DHT22;34646;47.964;7.982;2023-07-31T13:37:44;20.60;90.40
47368;DHT22;34646;47.964;7.982;2023-07-31T13:43:45;20.60;90.40
47368;DHT22;34646;47.964;7.982;2023-07-31T13:49:45;20.50;90.40
47368;DHT22;34646;47.964;7.982;2023-07-31T13:55:46;21.00;90.30
47368;DHT22;34646;47.964;7.982;2023-07-31T14:01:50;20.50;90.10
47368;DHT22;34646;47.964;7.982;2023-07-31T14:07:51;20.50;90.20
47368;DHT22;34646;47.964;7.982;2023-07-31T14:13:52;20.60;90.40
47368;DHT22;34646;47.964;7.982;2023-07-31T14:19:53;20.50;90.50
47368;DHT22;34646;47.964;7.982;2023-07-31T14:25:54;20.50;90.50
47368;DHT22;34646;47.964;7.982;2023-07-31T14:31:54;20.40;90.50
47368;DHT22;34646;47.964;7.982;2023-07-31T14:37:56;20.50;90.50
47368;DHT22;34646;47.964;7.982;2023-07-31T14:43:56;20.80;90.50
47368;DHT22;34646;47.964;7.982;2023-07-31T14:49:57;20.70;90.50
47368;DHT22;34646;47.964;7.982;2023-07-31T14:55:58;20.80;90.50
47368;DHT22;34646;47.964;7.982;2023-07-31T15:08:00;20.70;90.50
47368;DHT22;34646;47.964;7.982;2023-07-31T15:14:00;20.70;90.60
47368;DHT22;34646;47.964;7.982;2023-07-31T15:20:01;21.00;90.70
47368;DHT22;34646;47.964;7.982;2023-07-31T15:26:02;20.80;90.40
47368;DHT22;34646;47.964;7.982;2023-07-31T15:32:04;20.90;90.80
47368;DHT22;34646;47.964;7.982;2023-07-31T15:38:06;21.00;91.00
47368;DHT22;34646;47.964;7.982;2023-07-31T15:44:07;21.20;90.90
47368;DHT22;34646;47.964;7.982;2023-07-31T15:50:08;21.00;90.80
47368;DHT22;34646;47.964;7.982;2023-07-31T15:56:09;20.90;91.00
47368;DHT22;34646;47.964;7.982;2023-07-31T16:02:10;20.80;91.00
47368;DHT22;34646;47.964;7.982;2023-07-31T16:14:13;20.90;91.10
47368;DHT22;34646;47.964;7.982;2023-07-31T16:20:13;21.00;91.10
47368;DHT22;34646;47.964;7.982;2023-07-31T16:26:14;20.60;91.00
47368;DHT22;34646;47.964;7.982;2023-07-31T16:32:15;21.10;91.00
47368;DHT22;34646;47.964;7.982;2023-07-31T16:38:15;21.00;91.40
47368;DHT22;34646;47.964;7.982;2023-07-31T16:44:16;21.00;91.40
47368;DHT22;34646;47.964;7.982;2023-07-31T16:50:17;20.90;91.30
47368;DHT22;34646;47.964;7.982;2023-07-31T16:56:17;21.00;91.30
47368;DHT22;34646;47.964;7.982;2023-07-31T17:02:18;20.80;91.10
47368;DHT22;34646;47.964;7.982;2023-07-31T17:08:18;21.00;91.30
47368;DHT22;34646;47.964;7.982;2023-07-31T17:14:19;21.10;91.10
47368;DHT22;34646;47.964;7.982;2023-07-31T17:20:20;21.20;91.10
47368;DHT22;34646;47.964;7.982;2023-07-31T17:26:21;20.80;91.20
47368;DHT22;34646;47.964;7.982;2023-07-31T17:32:22;20.60;83.90
47368;DHT22;34646;47.964;7.982;2023-07-31T17:38:22;20.80;91.10
47368;DHT22;34646;47.964;7.982;2023-07-31T17:44:23;21.00;91.20
47368;DHT22;34646;47.964;7.982;2023-07-31T17:50:24;21.20;91.30
47368;DHT22;34646;47.964;7.982;2023-07-31T17:56:24;20.80;91.10
47368;DHT22;34646;47.964;7.982;2023-07-31T18:02:25;20.90;91.20
47368;DHT22;34646;47.964;7.982;2023-07-31T18:08:26;21.00;91.20
47368;DHT22;34646;47.964;7.982;2023-07-31T18:14:26;20.80;91.10
47368;DHT22;34646;47.964;7.982;2023-07-31T18:20:28;20.90;91.20
47368;DHT22;34646;47.964;7.982;2023-07-31T18:26:29;21.00;90.90
47368;DHT22;34646;47.964;7.982;2023-07-31T18:32:29;20.80;91.10
47368;DHT22;34646;47.964;7.982;2023-07-31T18:44:32;20.70;90.80
47368;DHT22;34646;47.964;7.982;2023-07-31T18:50:33;20.90;91.00
47368;DHT22;34646;47.964;7.982;2023-07-31T18:56:33;21.00;90.90
47368;DHT22;34646;47.964;7.982;2023-07-31T19:02:35;20.80;90.70
47368;DHT22;34646;47.964;7.982;2023-07-31T19:08:36;21.20;84.50
47368;DHT22;34646;47.964;7.982;2023-07-31T19:14:37;21.00;90.70
47368;DHT22;34646;47.964;7.982;2023-07-31T19:20:37;20.90;91.00
47368;DHT22;34646;47.964;7.982;2023-07-31T19:26:38;20.70;90.60
47368;DHT22;34646;47.964;7.982;2023-07-31T19:32:39;20.90;90.90
47368;DHT22;34646;47.964;7.982;2023-07-31T19:38:39;20.90;90.90
47368;DHT22;34646;47.964;7.982;2023-07-31T19:44:40;20.90;90.90
47368;DHT22;34646;47.964;7.982;2023-07-31T19:50:41;20.70;90.60
47368;DHT22;34646;47.964;7.982;2023-07-31T19:56:41;20.60;90.70
47368;DHT22;34646;47.964;7.982;2023-07-31T20:02:43;20.70;90.90
47368;DHT22;34646;47.964;7.982;2023-07-31T20:08:43;21.00;83.60
47368;DHT22;34646;47.964;7.982;2023-07-31T20:14:44;20.90;91.00
47368;DHT22;34646;47.964;7.982;2023-07-31T20:20:45;20.90;91.00
47368;DHT22;34646;47.964;7.982;2023-07-31T20:26:46;21.10;90.80
47368;DHT22;34646;47.964;7.982;2023-07-31T20:32:46;20.80;91.00
47368;DHT22;34646;47.964;7.982;2023-07-31T20:38:47;20.80;91.00
47368;DHT22;34646;47.964;7.982;2023-07-31T20:44:47;20.60;90.70
47368;DHT22;34646;47.964;7.982;2023-07-31T20:50:48;21.00;90.80
47368;DHT22;34646;47.964;7.982;2023-07-31T20:56:49;21.20;90.90
47368;DHT22;34646;47.964;7.982;2023-07-31T21:02:50;20.70;90.80
47368;DHT22;34646;47.964;7.982;2023-07-31T21:08:50;20.80;91.00
47368;DHT22;34646;47.964;7.982;2023-07-31T21:14:51;20.80;90.70
47368;DHT22;34646;47.964;7.982;2023-07-31T21:20:52;20.70;90.70
47368;DHT22;34646;47.964;7.982;2023-07-31T21:26:53;20.80;90.80
47368;DHT22;34646;47.964;7.982;2023-07-31T21:32:53;20.80;91.00
47368;DHT22;34646;47.964;7.982;2023-07-31T21:38:54;20.90;91.00
47368;DHT22;34646;47.964;7.982;2023-07-31T21:44:55;20.90;91.00
47368;DHT22;34646;47.964;7.982;2023-07-31T21:50:55;20.80;91.00
47368;DHT22;34646;47.964;7.982;2023-07-31T21:56:56;20.70;90.70
47368;DHT22;34646;47.964;7.982;2023-07-31T22:02:56;20.90;91.00
47368;DHT22;34646;47.964;7.982;2023-07-31T22:08:57;20.50;90.70
47368;DHT22;34646;47.964;7.982;2023-07-31T22:14:58;21.00;90.80
47368;DHT22;34646;47.964;7.982;2023-07-31T22:20:59;20.90;90.80
47368;DHT22;34646;47.964;7.982;2023-07-31T22:26:59;20.80;90.80
47368;DHT22;34646;47.964;7.982;2023-07-31T22:33:00;21.00;90.80
47368;DHT22;34646;47.964;7.982;2023-07-31T22:39:01;20.50;90.70
47368;DHT22;34646;47.964;7.982;2023-07-31T22:45:01;20.80;91.00
47368;DHT22;34646;47.964;7.982;2023-07-31T22:51:02;20.80;91.00
47368;DHT22;34646;47.964;7.982;2023-07-31T22:57:03;21.20;90.80
47368;DHT22;34646;47.964;7.982;2023-07-31T23:03:04;20.60;90.70
47368;DHT22;34646;47.964;7.982;2023-07-31T23:09:04;20.70;90.80
47368;DHT22;34646;47.964;7.982;2023-07-31T23:15:06;20.80;91.00
47368;DHT22;34646;47.964;7.982;2023-07-31T23:21:06;20.80;83.60
47368;DHT22;34646;47.964;7.982;2023-07-31T23:27:07;20.40;90.60
47368;DHT22;34646;47.964;7.982;2023-07-31T23:33:08;20.60;90.70
47368;DHT22;34646;47.964;7.982;2023-07-31T23:39:09;20.90;83.60
47368;DHT22;34646;47.964;7.982;2023-07-31T23:45:10;21.00;90.80
47368;DHT22;34646;47.964;7.982;2023-07-31T23:51:14;20.60;90.70
47368;DHT22;34646;47.964;7.982;2023-07-31T23:57:14;20.80;91.10
